sensor_id;sensor_type;location;lat;lon;timestamp;P1;durP1;ratioP1;P2;durP2;ratioP2
12373;SDS011;6251;51.762;8.660;2022-10-10T04:06:51;3.83;;;2.95;;
12373;SDS011;6251;51.762;8.660;2022-10-10T04:16:52;4.68;;;3.30;;
12373;SDS011;6251;51.762;8.660;2022-10-10T04:26:53;3.50;;;3.20;;
12373;SDS011;6251;51.762;8.660;2022-10-10T04:36:54;7.25;;;4.05;;
12373;SDS011;6251;51.762;8.660;2022-10-10T04:46:55;3.83;;;3.22;;
12373;SDS011;6251;51.762;8.660;2022-10-10T04:56:55;16.05;;;8.00;;
12373;SDS011;6251;51.762;8.660;2022-10-10T05:06:56;8.63;;;5.82;;
12373;SDS011;6251;51.762;8.660;2022-10-10T05:16:56;7.87;;;5.40;;
12373;SDS011;6251;51.762;8.660;2022-10-10T05:26:57;7.33;;;5.17;;
12373;SDS011;6251;51.762;8.660;2022-10-10T05:36:58;8.63;;;6.70;;
12373;SDS011;6251;51.762;8.660;2022-10-10T05:46:59;8.50;;;6.50;;
12373;SDS011;6251;51.762;8.660;2022-10-10T05:56:59;7.25;;;6.15;;
12373;SDS011;6251;51.762;8.660;2022-10-10T06:07:00;5.05;;;4.55;;
12373;SDS011;6251;51.762;8.660;2022-10-10T06:17:00;5.50;;;4.57;;
12373;SDS011;6251;51.762;8.660;2022-10-10T06:27:01;4.28;;;3.80;;
12373;SDS011;6251;51.762;8.660;2022-10-10T06:37:01;4.67;;;4.23;;
12373;SDS011;6251;51.762;8.660;2022-10-10T06:47:02;3.40;;;3.13;;
12373;SDS011;6251;51.762;8.660;2022-10-10T06:57:03;4.37;;;3.97;;
12373;SDS011;6251;51.762;8.660;2022-10-10T07:07:03;4.90;;;4.20;;
12373;SDS011;6251;51.762;8.660;2022-10-10T07:17:04;4.82;;;4.37;;
12373;SDS011;6251;51.762;8.660;2022-10-10T07:27:04;6.53;;;4.65;;
12373;SDS011;6251;51.762;8.660;2022-10-10T07:37:05;5.45;;;4.62;;
12373;SDS011;6251;51.762;8.660;2022-10-10T07:47:06;5.60;;;5.10;;
12373;SDS011;6251;51.762;8.660;2022-10-10T07:57:07;6.37;;;5.35;;
12373;SDS011;6251;51.762;8.660;2022-10-10T08:07:08;8.38;;;4.90;;
12373;SDS011;6251;51.762;8.660;2022-10-10T08:17:08;5.00;;;4.45;;
12373;SDS011;6251;51.762;8.660;2022-10-10T08:27:09;5.23;;;4.30;;
12373;SDS011;6251;51.762;8.660;2022-10-10T08:37:09;3.62;;;3.35;;
12373;SDS011;6251;51.762;8.660;2022-10-10T09:07:33;4.03;;;3.47;;
12373;SDS011;6251;51.762;8.660;2022-10-10T09:17:45;4.10;;;3.55;;
12373;SDS011;6251;51.762;8.660;2022-10-10T09:28:19;6.43;;;3.95;;
12373;SDS011;6251;51.762;8.660;2022-10-10T09:38:43;4.30;;;3.90;;
12373;SDS011;6251;51.762;8.660;2022-10-10T09:48:48;5.87;;;3.70;;
12373;SDS011;6251;51.762;8.660;2022-10-10T09:58:51;5.80;;;3.83;;
12373;SDS011;6251;51.762;8.660;2022-10-10T10:08:52;4.30;;;3.25;;
12373;SDS011;6251;51.762;8.660;2022-10-10T10:18:53;2.92;;;2.72;;
12373;SDS011;6251;51.762;8.660;2022-10-10T10:28:55;5.15;;;3.12;;
12373;SDS011;6251;51.762;8.660;2022-10-10T10:48:59;4.95;;;3.03;;
12373;SDS011;6251;51.762;8.660;2022-10-10T11:09:34;3.87;;;2.62;;
12373;SDS011;6251;51.762;8.660;2022-10-10T11:19:40;4.47;;;2.70;;
12373;SDS011;6251;51.762;8.660;2022-10-10T11:30:06;3.10;;;2.80;;
12373;SDS011;6251;51.762;8.660;2022-10-10T11:40:22;3.25;;;2.28;;
12373;SDS011;6251;51.762;8.660;2022-10-10T11:50:33;3.55;;;2.20;;
12373;SDS011;6251;51.762;8.660;2022-10-10T12:00:47;3.22;;;2.40;;
12373;SDS011;6251;51.762;8.660;2022-10-10T12:10:54;3.72;;;2.37;;
12373;SDS011;6251;51.762;8.660;2022-10-10T12:21:13;2.67;;;2.25;;
12373;SDS011;6251;51.762;8.660;2022-10-10T12:41:16;4.22;;;2.15;;
12373;SDS011;6251;51.762;8.660;2022-10-10T12:51:20;4.78;;;2.53;;
12373;SDS011;6251;51.762;8.660;2022-10-10T13:01:23;2.08;;;1.98;;
12373;SDS011;6251;51.762;8.660;2022-10-10T13:11:26;4.03;;;1.77;;
12373;SDS011;6251;51.762;8.660;2022-10-10T13:21:30;2.03;;;1.90;;
12373;SDS011;6251;51.762;8.660;2022-10-10T13:31:33;3.55;;;1.60;;
12373;SDS011;6251;51.762;8.660;2022-10-10T13:41:36;1.98;;;1.73;;
12373;SDS011;6251;51.762;8.660;2022-10-10T13:51:41;2.08;;;1.60;;
12373;SDS011;6251;51.762;8.660;2022-10-10T14:01:45;2.53;;;1.60;;
12373;SDS011;6251;51.762;8.660;2022-10-10T14:11:47;2.33;;;1.60;;
12373;SDS011;6251;51.762;8.660;2022-10-10T14:21:50;1.75;;;1.65;;
12373;SDS011;6251;51.762;8.660;2022-10-10T14:31:51;2.67;;;1.73;;
12373;SDS011;6251;51.762;8.660;2022-10-10T14:41:51;2.93;;;1.80;;
12373;SDS011;6251;51.762;8.660;2022-10-10T14:51:52;3.12;;;1.83;;
12373;SDS011;6251;51.762;8.660;2022-10-10T15:01:53;3.10;;;1.85;;
12373;SDS011;6251;51.762;8.660;2022-10-10T15:11:53;2.37;;;1.90;;
12373;SDS011;6251;51.762;8.660;2022-10-10T15:21:54;3.97;;;2.22;;
12373;SDS011;6251;51.762;8.660;2022-10-10T15:31:54;3.95;;;2.40;;
12373;SDS011;6251;51.762;8.660;2022-10-10T15:41:55;3.05;;;2.40;;
12373;SDS011;6251;51.762;8.660;2022-10-10T15:51:56;4.30;;;2.55;;
12373;SDS011;6251;51.762;8.660;2022-10-10T16:01:57;7.32;;;2.70;;
12373;SDS011;6251;51.762;8.660;2022-10-10T16:11:57;5.72;;;2.92;;
12373;SDS011;6251;51.762;8.660;2022-10-10T16:21:58;7.22;;;2.83;;
12373;SDS011;6251;51.762;8.660;2022-10-10T16:31:59;4.87;;;2.65;;
12373;SDS011;6251;51.762;8.660;2022-10-10T16:41:59;8.18;;;3.70;;
12373;SDS011;6251;51.762;8.660;2022-10-10T16:52:00;3.40;;;2.85;;
12373;SDS011;6251;51.762;8.660;2022-10-10T17:02:00;7.07;;;3.30;;
12373;SDS011;6251;51.762;8.660;2022-10-10T17:12:01;6.07;;;3.92;;
12373;SDS011;6251;51.762;8.660;2022-10-10T17:22:02;5.20;;;4.30;;
12373;SDS011;6251;51.762;8.660;2022-10-10T17:32:03;7.70;;;4.75;;
12373;SDS011;6251;51.762;8.660;2022-10-10T17:42:03;7.72;;;5.40;;
12373;SDS011;6251;51.762;8.660;2022-10-10T17:52:04;6.65;;;5.05;;
12373;SDS011;6251;51.762;8.660;2022-10-10T18:02:05;6.95;;;5.90;;
12373;SDS011;6251;51.762;8.660;2022-10-10T18:12:05;9.27;;;6.22;;
12373;SDS011;6251;51.762;8.660;2022-10-10T18:22:06;8.38;;;6.65;;
12373;SDS011;6251;51.762;8.660;2022-10-10T18:32:07;9.77;;;7.65;;
12373;SDS011;6251;51.762;8.660;2022-10-10T18:42:08;11.00;;;9.38;;
12373;SDS011;6251;51.762;8.660;2022-10-10T18:52:09;10.60;;;8.13;;
12373;SDS011;6251;51.762;8.660;2022-10-10T19:02:09;5.40;;;3.83;;
12373;SDS011;6251;51.762;8.660;2022-10-10T19:12:11;9.02;;;2.83;;
12373;SDS011;6251;51.762;8.660;2022-10-10T19:22:11;2.70;;;2.40;;
12373;SDS011;6251;51.762;8.660;2022-10-10T19:32:12;5.18;;;2.33;;
12373;SDS011;6251;51.762;8.660;2022-10-10T19:42:12;5.43;;;2.12;;
12373;SDS011;6251;51.762;8.660;2022-10-10T19:52:13;4.35;;;2.00;;
12373;SDS011;6251;51.762;8.660;2022-10-10T20:02:13;8.40;;;2.33;;
12373;SDS011;6251;51.762;8.660;2022-10-10T20:12:14;7.00;;;2.40;;
12373;SDS011;6251;51.762;8.660;2022-10-10T20:22:15;6.68;;;2.87;;
12373;SDS011;6251;51.762;8.660;2022-10-10T20:32:15;6.20;;;1.90;;
12373;SDS011;6251;51.762;8.660;2022-10-10T20:42:16;5.85;;;2.15;;
12373;SDS011;6251;51.762;8.660;2022-10-10T20:52:16;3.95;;;2.08;;
12373;SDS011;6251;51.762;8.660;2022-10-10T21:02:17;3.28;;;1.80;;
12373;SDS011;6251;51.762;8.660;2022-10-10T21:12:18;3.58;;;2.08;;
